sensor_id;sensor_type;location;lat;lon;timestamp;P1;durP1;ratioP1;P2;durP2;ratioP2
68653;SDS011;55636;51.108;13.622;2023-12-20T00:00:04;2.13;;;2.03;;
68653;SDS011;55636;51.108;13.622;2023-12-20T00:01:09;2.30;;;2.10;;
68653;SDS011;55636;51.108;13.622;2023-12-20T00:02:12;2.33;;;2.13;;
68653;SDS011;55636;51.108;13.622;2023-12-20T00:03:14;2.40;;;2.20;;
68653;SDS011;55636;51.108;13.622;2023-12-20T00:04:16;1.97;;;1.80;;
68653;SDS011;55636;51.108;13.622;2023-12-20T00:05:20;2.40;;;2.20;;
68653;SDS011;55636;51.108;13.622;2023-12-20T00:06:23;2.33;;;2.13;;
68653;SDS011;55636;51.108;13.622;2023-12-20T00:07:25;2.40;;;2.20;;
68653;SDS011;55636;51.108;13.622;2023-12-20T00:08:28;3.33;;;2.13;;
68653;SDS011;55636;51.108;13.622;2023-12-20T00:09:30;2.37;;;2.17;;
68653;SDS011;55636;51.108;13.622;2023-12-20T00:10:32;2.50;;;2.30;;
68653;SDS011;55636;51.108;13.622;2023-12-20T00:11:35;2.17;;;2.00;;
68653;SDS011;55636;51.108;13.622;2023-12-20T00:12:37;2.40;;;2.20;;
68653;SDS011;55636;51.108;13.622;2023-12-20T00:13:40;2.37;;;2.17;;
68653;SDS011;55636;51.108;13.622;2023-12-20T00:14:42;3.07;;;2.50;;
68653;SDS011;55636;51.108;13.622;2023-12-20T00:15:44;2.20;;;2.00;;
68653;SDS011;55636;51.108;13.622;2023-12-20T00:16:47;2.17;;;2.00;;
68653;SDS011;55636;51.108;13.622;2023-12-20T00:17:49;2.70;;;2.50;;
68653;SDS011;55636;51.108;13.622;2023-12-20T00:18:52;2.60;;;2.40;;
68653;SDS011;55636;51.108;13.622;2023-12-20T00:19:55;2.70;;;2.50;;
68653;SDS011;55636;51.108;13.622;2023-12-20T00:20:58;3.13;;;2.87;;
68653;SDS011;55636;51.108;13.622;2023-12-20T00:22:00;2.73;;;2.53;;
68653;SDS011;55636;51.108;13.622;2023-12-20T00:23:03;2.80;;;2.60;;
68653;SDS011;55636;51.108;13.622;2023-12-20T00:24:06;3.27;;;2.73;;
68653;SDS011;55636;51.108;13.622;2023-12-20T00:25:08;3.43;;;3.10;;
68653;SDS011;55636;51.108;13.622;2023-12-20T00:26:11;3.00;;;2.70;;
68653;SDS011;55636;51.108;13.622;2023-12-20T00:27:13;2.63;;;2.23;;
68653;SDS011;55636;51.108;13.622;2023-12-20T00:28:16;2.00;;;1.90;;
68653;SDS011;55636;51.108;13.622;2023-12-20T00:29:18;2.40;;;2.20;;
68653;SDS011;55636;51.108;13.622;2023-12-20T00:30:21;2.10;;;1.90;;
68653;SDS011;55636;51.108;13.622;2023-12-20T00:31:24;2.13;;;1.93;;
68653;SDS011;55636;51.108;13.622;2023-12-20T00:32:27;2.00;;;1.87;;
68653;SDS011;55636;51.108;13.622;2023-12-20T00:33:29;1.93;;;1.83;;
68653;SDS011;55636;51.108;13.622;2023-12-20T00:34:32;2.00;;;1.90;;
68653;SDS011;55636;51.108;13.622;2023-12-20T00:35:35;1.80;;;1.70;;
68653;SDS011;55636;51.108;13.622;2023-12-20T00:36:37;2.13;;;2.00;;
68653;SDS011;55636;51.108;13.622;2023-12-20T00:37:40;2.20;;;2.00;;
68653;SDS011;55636;51.108;13.622;2023-12-20T00:38:42;2.07;;;1.90;;
68653;SDS011;55636;51.108;13.622;2023-12-20T00:39:44;1.90;;;1.80;;
68653;SDS011;55636;51.108;13.622;2023-12-20T00:40:47;2.00;;;1.80;;
68653;SDS011;55636;51.108;13.622;2023-12-20T00:41:49;1.70;;;1.60;;
68653;SDS011;55636;51.108;13.622;2023-12-20T00:42:52;1.83;;;1.73;;
68653;SDS011;55636;51.108;13.622;2023-12-20T00:43:55;1.70;;;1.60;;
68653;SDS011;55636;51.108;13.622;2023-12-20T00:44:58;1.80;;;1.70;;
68653;SDS011;55636;51.108;13.622;2023-12-20T00:46:01;1.70;;;1.60;;
68653;SDS011;55636;51.108;13.622;2023-12-20T00:47:03;1.77;;;1.67;;
68653;SDS011;55636;51.108;13.622;2023-12-20T00:48:06;1.60;;;1.50;;
68653;SDS011;55636;51.108;13.622;2023-12-20T00:49:09;1.70;;;1.60;;
68653;SDS011;55636;51.108;13.622;2023-12-20T00:50:11;1.80;;;1.70;;
68653;SDS011;55636;51.108;13.622;2023-12-20T00:51:14;1.60;;;1.50;;
68653;SDS011;55636;51.108;13.622;2023-12-20T00:52:16;1.70;;;1.60;;
68653;SDS011;55636;51.108;13.622;2023-12-20T00:53:19;1.90;;;1.80;;
68653;SDS011;55636;51.108;13.622;2023-12-20T00:54:22;1.70;;;1.60;;
68653;SDS011;55636;51.108;13.622;2023-12-20T00:55:24;1.70;;;1.60;;
68653;SDS011;55636;51.108;13.622;2023-12-20T00:56:27;1.50;;;1.40;;
68653;SDS011;55636;51.108;13.622;2023-12-20T00:57:29;1.67;;;1.57;;
68653;SDS011;55636;51.108;13.622;2023-12-20T00:58:31;1.40;;;1.30;;
68653;SDS011;55636;51.108;13.622;2023-12-20T00:59:34;1.60;;;1.50;;
68653;SDS011;55636;51.108;13.622;2023-12-20T01:00:36;1.73;;;1.63;;
68653;SDS011;55636;51.108;13.622;2023-12-20T01:01:41;1.80;;;1.70;;
68653;SDS011;55636;51.108;13.622;2023-12-20T01:02:44;1.70;;;1.60;;
68653;SDS011;55636;51.108;13.622;2023-12-20T01:03:48;1.40;;;1.30;;
68653;SDS011;55636;51.108;13.622;2023-12-20T01:04:53;1.67;;;1.57;;
68653;SDS011;55636;51.108;13.622;2023-12-20T01:05:55;1.63;;;1.53;;
68653;SDS011;55636;51.108;13.622;2023-12-20T01:06:58;1.67;;;1.57;;
68653;SDS011;55636;51.108;13.622;2023-12-20T01:08:00;1.70;;;1.60;;
68653;SDS011;55636;51.108;13.622;2023-12-20T01:09:05;1.60;;;1.50;;
68653;SDS011;55636;51.108;13.622;2023-12-20T01:10:07;1.70;;;1.60;;
68653;SDS011;55636;51.108;13.622;2023-12-20T01:11:10;1.50;;;1.40;;
68653;SDS011;55636;51.108;13.622;2023-12-20T01:12:12;1.53;;;1.43;;
68653;SDS011;55636;51.108;13.622;2023-12-20T01:13:15;1.57;;;1.40;;
68653;SDS011;55636;51.108;13.622;2023-12-20T01:14:17;1.60;;;1.50;;
68653;SDS011;55636;51.108;13.622;2023-12-20T01:15:20;1.60;;;1.50;;
68653;SDS011;55636;51.108;13.622;2023-12-20T01:16:22;1.50;;;1.40;;
68653;SDS011;55636;51.108;13.622;2023-12-20T01:17:25;1.50;;;1.40;;
68653;SDS011;55636;51.108;13.622;2023-12-20T01:18:28;1.57;;;1.47;;
68653;SDS011;55636;51.108;13.622;2023-12-20T01:19:30;1.60;;;1.50;;
68653;SDS011;55636;51.108;13.622;2023-12-20T01:20:33;1.47;;;1.37;;
68653;SDS011;55636;51.108;13.622;2023-12-20T01:21:35;1.37;;;1.27;;
68653;SDS011;55636;51.108;13.622;2023-12-20T01:22:38;1.30;;;1.30;;
68653;SDS011;55636;51.108;13.622;2023-12-20T01:23:40;1.50;;;1.40;;
68653;SDS011;55636;51.108;13.622;2023-12-20T01:24:42;1.40;;;1.30;;
68653;SDS011;55636;51.108;13.622;2023-12-20T01:25:45;1.50;;;1.40;;
68653;SDS011;55636;51.108;13.622;2023-12-20T01:26:47;1.40;;;1.30;;
68653;SDS011;55636;51.108;13.622;2023-12-20T01:27:49;1.50;;;1.40;;
68653;SDS011;55636;51.108;13.622;2023-12-20T01:28:52;1.37;;;1.27;;
68653;SDS011;55636;51.108;13.622;2023-12-20T01:29:54;1.30;;;1.20;;
68653;SDS011;55636;51.108;13.622;2023-12-20T01:30:57;1.30;;;1.20;;
68653;SDS011;55636;51.108;13.622;2023-12-20T01:32:00;1.40;;;1.30;;
68653;SDS011;55636;51.108;13.622;2023-12-20T01:33:04;1.30;;;1.20;;
68653;SDS011;55636;51.108;13.622;2023-12-20T01:34:08;1.40;;;1.30;;
68653;SDS011;55636;51.108;13.622;2023-12-20T01:35:10;1.40;;;1.30;;
68653;SDS011;55636;51.108;13.622;2023-12-20T01:36:14;1.20;;;1.20;;
68653;SDS011;55636;51.108;13.622;2023-12-20T01:37:17;1.30;;;1.30;;
68653;SDS011;55636;51.108;13.622;2023-12-20T01:38:19;1.10;;;1.10;;
68653;SDS011;55636;51.108;13.622;2023-12-20T01:39:22;1.30;;;1.20;;
68653;SDS011;55636;51.108;13.622;2023-12-20T01:40:30;1.40;;;1.20;;
68653;SDS011;55636;51.108;13.622;2023-12-20T01:41:33;1.40;;;1.30;;
68653;SDS011;55636;51.108;13.622;2023-12-20T01:42:35;1.00;;;1.00;;
68653;SDS011;55636;51.108;13.622;2023-12-20T01:43:37;1.10;;;1.10;;
68653;SDS011;55636;51.108;13.622;2023-12-20T01:44:51;0.90;;;0.90;;
68653;SDS011;55636;51.108;13.622;2023-12-20T01:45:54;1.00;;;1.00;;
68653;SDS011;55636;51.108;13.622;2023-12-20T01:46:59;0.90;;;0.90;;
68653;SDS011;55636;51.108;13.622;2023-12-20T01:48:02;1.00;;;1.00;;
68653;SDS011;55636;51.108;13.622;2023-12-20T01:49:07;0.90;;;0.90;;
68653;SDS011;55636;51.108;13.622;2023-12-20T01:50:10;1.00;;;1.00;;
68653;SDS011;55636;51.108;13.622;2023-12-20T01:51:12;1.03;;;0.90;;
68653;SDS011;55636;51.108;13.622;2023-12-20T01:52:15;0.93;;;0.93;;
68653;SDS011;55636;51.108;13.622;2023-12-20T01:53:20;0.90;;;0.90;;
68653;SDS011;55636;51.108;13.622;2023-12-20T01:54:26;0.90;;;0.90;;
68653;SDS011;55636;51.108;13.622;2023-12-20T01:55:30;1.00;;;1.00;;
68653;SDS011;55636;51.108;13.622;2023-12-20T01:56:36;1.07;;;0.90;;
68653;SDS011;55636;51.108;13.622;2023-12-20T01:57:39;0.80;;;0.80;;
68653;SDS011;55636;51.108;13.622;2023-12-20T01:58:46;0.73;;;0.73;;
68653;SDS011;55636;51.108;13.622;2023-12-20T01:59:52;0.90;;;0.90;;
68653;SDS011;55636;51.108;13.622;2023-12-20T02:00:55;0.70;;;0.70;;
68653;SDS011;55636;51.108;13.622;2023-12-20T02:01:58;1.00;;;0.90;;
68653;SDS011;55636;51.108;13.622;2023-12-20T02:03:01;0.70;;;0.70;;
68653;SDS011;55636;51.108;13.622;2023-12-20T02:04:04;0.80;;;0.80;;
68653;SDS011;55636;51.108;13.622;2023-12-20T02:05:07;0.80;;;0.80;;
68653;SDS011;55636;51.108;13.622;2023-12-20T02:06:12;0.70;;;0.70;;
68653;SDS011;55636;51.108;13.622;2023-12-20T02:07:14;0.80;;;0.80;;
68653;SDS011;55636;51.108;13.622;2023-12-20T02:08:19;0.90;;;0.90;;
68653;SDS011;55636;51.108;13.622;2023-12-20T02:09:22;0.80;;;0.80;;
68653;SDS011;55636;51.108;13.622;2023-12-20T02:10:25;0.90;;;0.90;;
68653;SDS011;55636;51.108;13.622;2023-12-20T02:11:29;0.80;;;0.80;;
68653;SDS011;55636;51.108;13.622;2023-12-20T02:12:33;0.67;;;0.67;;
68653;SDS011;55636;51.108;13.622;2023-12-20T02:13:35;0.80;;;0.80;;
68653;SDS011;55636;51.108;13.622;2023-12-20T02:14:38;0.83;;;0.83;;
68653;SDS011;55636;51.108;13.622;2023-12-20T02:15:40;0.77;;;0.77;;
68653;SDS011;55636;51.108;13.622;2023-12-20T02:16:46;0.80;;;0.80;;
68653;SDS011;55636;51.108;13.622;2023-12-20T02:17:48;1.77;;;0.90;;
68653;SDS011;55636;51.108;13.622;2023-12-20T02:18:51;1.10;;;1.00;;
68653;SDS011;55636;51.108;13.622;2023-12-20T02:19:54;0.90;;;0.90;;
68653;SDS011;55636;51.108;13.622;2023-12-20T02:20:56;1.10;;;1.00;;
68653;SDS011;55636;51.108;13.622;2023-12-20T02:22:33;1.30;;;1.20;;
68653;SDS011;55636;51.108;13.622;2023-12-20T02:23:28;1.40;;;1.30;;
68653;SDS011;55636;51.108;13.622;2023-12-20T02:24:30;1.27;;;1.17;;
68653;SDS011;55636;51.108;13.622;2023-12-20T02:25:32;1.00;;;1.00;;
68653;SDS011;55636;51.108;13.622;2023-12-20T02:26:35;1.20;;;1.10;;
68653;SDS011;55636;51.108;13.622;2023-12-20T02:27:38;1.00;;;1.00;;
68653;SDS011;55636;51.108;13.622;2023-12-20T02:28:41;0.93;;;0.93;;
68653;SDS011;55636;51.108;13.622;2023-12-20T02:29:44;0.90;;;0.90;;
68653;SDS011;55636;51.108;13.622;2023-12-20T02:30:49;1.03;;;1.00;;
68653;SDS011;55636;51.108;13.622;2023-12-20T02:31:52;0.90;;;0.90;;
68653;SDS011;55636;51.108;13.622;2023-12-20T02:32:54;0.80;;;0.80;;
68653;SDS011;55636;51.108;13.622;2023-12-20T02:33:57;0.70;;;0.70;;
68653;SDS011;55636;51.108;13.622;2023-12-20T02:34:59;0.80;;;0.80;;
68653;SDS011;55636;51.108;13.622;2023-12-20T02:36:02;0.70;;;0.70;;
68653;SDS011;55636;51.108;13.622;2023-12-20T02:37:05;0.70;;;0.70;;
68653;SDS011;55636;51.108;13.622;2023-12-20T02:38:08;0.70;;;0.70;;
68653;SDS011;55636;51.108;13.622;2023-12-20T02:39:10;0.70;;;0.70;;
68653;SDS011;55636;51.108;13.622;2023-12-20T02:40:13;1.03;;;0.90;;
68653;SDS011;55636;51.108;13.622;2023-12-20T02:41:15;0.80;;;0.80;;
68653;SDS011;55636;51.108;13.622;2023-12-20T02:42:20;0.97;;;0.90;;
68653;SDS011;55636;51.108;13.622;2023-12-20T02:43:22;0.60;;;0.60;;
68653;SDS011;55636;51.108;13.622;2023-12-20T02:44:24;0.80;;;0.80;;
68653;SDS011;55636;51.108;13.622;2023-12-20T02:45:27;0.70;;;0.70;;
68653;SDS011;55636;51.108;13.622;2023-12-20T02:46:30;0.60;;;0.60;;
68653;SDS011;55636;51.108;13.622;2023-12-20T02:47:32;0.70;;;0.70;;
68653;SDS011;55636;51.108;13.622;2023-12-20T02:48:35;0.60;;;0.60;;
68653;SDS011;55636;51.108;13.622;2023-12-20T02:49:37;0.70;;;0.70;;
68653;SDS011;55636;51.108;13.622;2023-12-20T02:50:40;0.70;;;0.70;;
68653;SDS011;55636;51.108;13.622;2023-12-20T02:51:42;0.70;;;0.70;;
68653;SDS011;55636;51.108;13.622;2023-12-20T02:52:45;0.80;;;0.80;;
68653;SDS011;55636;51.108;13.622;2023-12-20T02:53:48;0.63;;;0.63;;
68653;SDS011;55636;51.108;13.622;2023-12-20T02:54:50;0.70;;;0.70;;
68653;SDS011;55636;51.108;13.622;2023-12-20T02:55:53;0.80;;;0.80;;
68653;SDS011;55636;51.108;13.622;2023-12-20T02:56:55;0.60;;;0.60;;
68653;SDS011;55636;51.108;13.622;2023-12-20T02:57:57;0.80;;;0.80;;
68653;SDS011;55636;51.108;13.622;2023-12-20T02:59:00;1.10;;;0.77;;
68653;SDS011;55636;51.108;13.622;2023-12-20T03:00:03;0.70;;;0.70;;
68653;SDS011;55636;51.108;13.622;2023-12-20T03:01:05;0.70;;;0.70;;
68653;SDS011;55636;51.108;13.622;2023-12-20T03:02:08;0.60;;;0.60;;
68653;SDS011;55636;51.108;13.622;2023-12-20T03:03:11;0.70;;;0.70;;
68653;SDS011;55636;51.108;13.622;2023-12-20T03:04:13;0.60;;;0.60;;
68653;SDS011;55636;51.108;13.622;2023-12-20T03:05:15;0.60;;;0.60;;
68653;SDS011;55636;51.108;13.622;2023-12-20T03:06:18;0.60;;;0.60;;
68653;SDS011;55636;51.108;13.622;2023-12-20T03:07:21;0.60;;;0.60;;
68653;SDS011;55636;51.108;13.622;2023-12-20T03:08:23;0.70;;;0.70;;
68653;SDS011;55636;51.108;13.622;2023-12-20T03:09:30;0.60;;;0.60;;
68653;SDS011;55636;51.108;13.622;2023-12-20T03:10:47;2.00;;;0.70;;
68653;SDS011;55636;51.108;13.622;2023-12-20T03:11:50;0.60;;;0.60;;
68653;SDS011;55636;51.108;13.622;2023-12-20T03:12:52;0.57;;;0.57;;
68653;SDS011;55636;51.108;13.622;2023-12-20T03:13:55;0.70;;;0.70;;
68653;SDS011;55636;51.108;13.622;2023-12-20T03:14:58;0.80;;;0.80;;
68653;SDS011;55636;51.108;13.622;2023-12-20T03:16:00;0.70;;;0.70;;
68653;SDS011;55636;51.108;13.622;2023-12-20T03:17:03;0.50;;;0.50;;
68653;SDS011;55636;51.108;13.622;2023-12-20T03:18:05;0.73;;;0.73;;
68653;SDS011;55636;51.108;13.622;2023-12-20T03:19:08;0.50;;;0.50;;
68653;SDS011;55636;51.108;13.622;2023-12-20T03:20:10;0.63;;;0.63;;
68653;SDS011;55636;51.108;13.622;2023-12-20T03:21:13;0.60;;;0.60;;
68653;SDS011;55636;51.108;13.622;2023-12-20T03:22:15;0.60;;;0.60;;
68653;SDS011;55636;51.108;13.622;2023-12-20T03:23:18;1.10;;;0.90;;
68653;SDS011;55636;51.108;13.622;2023-12-20T03:24:20;0.60;;;0.60;;
68653;SDS011;55636;51.108;13.622;2023-12-20T03:25:22;0.67;;;0.67;;
68653;SDS011;55636;51.108;13.622;2023-12-20T03:26:25;0.63;;;0.63;;
68653;SDS011;55636;51.108;13.622;2023-12-20T03:27:27;0.60;;;0.60;;
68653;SDS011;55636;51.108;13.622;2023-12-20T03:28:29;0.60;;;0.60;;
68653;SDS011;55636;51.108;13.622;2023-12-20T03:29:32;0.50;;;0.50;;
68653;SDS011;55636;51.108;13.622;2023-12-20T03:30:36;0.60;;;0.60;;
68653;SDS011;55636;51.108;13.622;2023-12-20T03:31:38;0.60;;;0.60;;
68653;SDS011;55636;51.108;13.622;2023-12-20T03:32:41;0.57;;;0.57;;
68653;SDS011;55636;51.108;13.622;2023-12-20T03:33:44;0.53;;;0.53;;
68653;SDS011;55636;51.108;13.622;2023-12-20T03:34:47;0.60;;;0.60;;
68653;SDS011;55636;51.108;13.622;2023-12-20T03:35:50;0.70;;;0.63;;
68653;SDS011;55636;51.108;13.622;2023-12-20T03:36:53;0.60;;;0.60;;
68653;SDS011;55636;51.108;13.622;2023-12-20T03:37:55;0.60;;;0.60;;
68653;SDS011;55636;51.108;13.622;2023-12-20T03:38:59;0.60;;;0.60;;
68653;SDS011;55636;51.108;13.622;2023-12-20T03:40:01;0.50;;;0.50;;
68653;SDS011;55636;51.108;13.622;2023-12-20T03:41:05;0.53;;;0.53;;
68653;SDS011;55636;51.108;13.622;2023-12-20T03:42:09;0.63;;;0.63;;
68653;SDS011;55636;51.108;13.622;2023-12-20T03:43:11;0.57;;;0.57;;
68653;SDS011;55636;51.108;13.622;2023-12-20T03:44:14;0.60;;;0.60;;
68653;SDS011;55636;51.108;13.622;2023-12-20T03:45:16;0.60;;;0.60;;
68653;SDS011;55636;51.108;13.622;2023-12-20T03:46:19;0.67;;;0.67;;
68653;SDS011;55636;51.108;13.622;2023-12-20T03:47:22;0.50;;;0.50;;
68653;SDS011;55636;51.108;13.622;2023-12-20T03:48:24;0.60;;;0.60;;
68653;SDS011;55636;51.108;13.622;2023-12-20T03:49:27;0.60;;;0.60;;
68653;SDS011;55636;51.108;13.622;2023-12-20T03:50:30;0.63;;;0.63;;
68653;SDS011;55636;51.108;13.622;2023-12-20T03:51:33;0.50;;;0.50;;
68653;SDS011;55636;51.108;13.622;2023-12-20T03:52:36;0.60;;;0.60;;
68653;SDS011;55636;51.108;13.622;2023-12-20T03:53:38;0.50;;;0.50;;
68653;SDS011;55636;51.108;13.622;2023-12-20T03:54:42;0.50;;;0.50;;
68653;SDS011;55636;51.108;13.622;2023-12-20T03:55:45;0.60;;;0.60;;
68653;SDS011;55636;51.108;13.622;2023-12-20T03:56:47;0.57;;;0.57;;
68653;SDS011;55636;51.108;13.622;2023-12-20T03:57:50;1.03;;;0.60;;
68653;SDS011;55636;51.108;13.622;2023-12-20T03:58:52;0.60;;;0.60;;
68653;SDS011;55636;51.108;13.622;2023-12-20T03:59:55;0.50;;;0.50;;
68653;SDS011;55636;51.108;13.622;2023-12-20T04:01:00;0.50;;;0.50;;
68653;SDS011;55636;51.108;13.622;2023-12-20T04:02:04;0.60;;;0.60;;
68653;SDS011;55636;51.108;13.622;2023-12-20T04:03:07;0.70;;;0.70;;
68653;SDS011;55636;51.108;13.622;2023-12-20T04:04:10;0.60;;;0.60;;
68653;SDS011;55636;51.108;13.622;2023-12-20T04:05:13;0.70;;;0.70;;
68653;SDS011;55636;51.108;13.622;2023-12-20T04:06:16;0.70;;;0.70;;
68653;SDS011;55636;51.108;13.622;2023-12-20T04:07:21;0.70;;;0.70;;
68653;SDS011;55636;51.108;13.622;2023-12-20T04:08:24;0.67;;;0.67;;
68653;SDS011;55636;51.108;13.622;2023-12-20T04:09:26;0.70;;;0.70;;
68653;SDS011;55636;51.108;13.622;2023-12-20T04:10:29;0.70;;;0.70;;
68653;SDS011;55636;51.108;13.622;2023-12-20T04:11:31;0.70;;;0.70;;
68653;SDS011;55636;51.108;13.622;2023-12-20T04:12:34;0.80;;;0.80;;
68653;SDS011;55636;51.108;13.622;2023-12-20T04:13:36;0.63;;;0.63;;
68653;SDS011;55636;51.108;13.622;2023-12-20T04:14:38;0.70;;;0.70;;
68653;SDS011;55636;51.108;13.622;2023-12-20T04:15:41;0.80;;;0.80;;
68653;SDS011;55636;51.108;13.622;2023-12-20T04:16:43;0.67;;;0.67;;
68653;SDS011;55636;51.108;13.622;2023-12-20T04:17:48;0.70;;;0.70;;
68653;SDS011;55636;51.108;13.622;2023-12-20T04:18:51;0.83;;;0.83;;
68653;SDS011;55636;51.108;13.622;2023-12-20T04:19:54;0.70;;;0.70;;
68653;SDS011;55636;51.108;13.622;2023-12-20T04:20:57;0.70;;;0.70;;
68653;SDS011;55636;51.108;13.622;2023-12-20T04:21:59;0.60;;;0.60;;
68653;SDS011;55636;51.108;13.622;2023-12-20T04:23:02;0.60;;;0.60;;
68653;SDS011;55636;51.108;13.622;2023-12-20T04:24:04;0.60;;;0.60;;
68653;SDS011;55636;51.108;13.622;2023-12-20T04:25:07;0.60;;;0.60;;
68653;SDS011;55636;51.108;13.622;2023-12-20T04:26:10;0.80;;;0.80;;
68653;SDS011;55636;51.108;13.622;2023-12-20T04:27:12;0.60;;;0.60;;
68653;SDS011;55636;51.108;13.622;2023-12-20T04:28:15;0.60;;;0.60;;
68653;SDS011;55636;51.108;13.622;2023-12-20T04:29:17;0.70;;;0.70;;
68653;SDS011;55636;51.108;13.622;2023-12-20T04:30:20;0.70;;;0.70;;
68653;SDS011;55636;51.108;13.622;2023-12-20T04:31:23;0.70;;;0.70;;
68653;SDS011;55636;51.108;13.622;2023-12-20T04:32:26;0.53;;;0.53;;
68653;SDS011;55636;51.108;13.622;2023-12-20T04:33:28;0.63;;;0.63;;
68653;SDS011;55636;51.108;13.622;2023-12-20T04:34:31;0.80;;;0.80;;
68653;SDS011;55636;51.108;13.622;2023-12-20T04:35:33;0.60;;;0.60;;
68653;SDS011;55636;51.108;13.622;2023-12-20T04:36:36;0.60;;;0.60;;
68653;SDS011;55636;51.108;13.622;2023-12-20T04:37:38;0.80;;;0.80;;
68653;SDS011;55636;51.108;13.622;2023-12-20T04:38:41;0.67;;;0.67;;
68653;SDS011;55636;51.108;13.622;2023-12-20T04:39:44;0.70;;;0.70;;
68653;SDS011;55636;51.108;13.622;2023-12-20T04:40:46;0.60;;;0.60;;
68653;SDS011;55636;51.108;13.622;2023-12-20T04:41:50;0.60;;;0.60;;
68653;SDS011;55636;51.108;13.622;2023-12-20T04:42:52;0.57;;;0.57;;
68653;SDS011;55636;51.108;13.622;2023-12-20T04:43:55;2.03;;;0.60;;
68653;SDS011;55636;51.108;13.622;2023-12-20T04:44:57;0.60;;;0.60;;
68653;SDS011;55636;51.108;13.622;2023-12-20T04:45:59;0.70;;;0.70;;
68653;SDS011;55636;51.108;13.622;2023-12-20T04:47:02;0.77;;;0.63;;
68653;SDS011;55636;51.108;13.622;2023-12-20T04:48:05;0.43;;;0.43;;
68653;SDS011;55636;51.108;13.622;2023-12-20T04:49:08;0.70;;;0.70;;
68653;SDS011;55636;51.108;13.622;2023-12-20T04:50:10;0.70;;;0.70;;
68653;SDS011;55636;51.108;13.622;2023-12-20T04:51:15;0.73;;;0.73;;
68653;SDS011;55636;51.108;13.622;2023-12-20T04:52:18;0.60;;;0.60;;
68653;SDS011;55636;51.108;13.622;2023-12-20T04:53:20;0.50;;;0.50;;
68653;SDS011;55636;51.108;13.622;2023-12-20T04:54:23;0.60;;;0.60;;
68653;SDS011;55636;51.108;13.622;2023-12-20T04:55:25;0.70;;;0.70;;
68653;SDS011;55636;51.108;13.622;2023-12-20T04:56:27;0.60;;;0.60;;
68653;SDS011;55636;51.108;13.622;2023-12-20T04:57:30;0.63;;;0.63;;
68653;SDS011;55636;51.108;13.622;2023-12-20T04:58:32;0.60;;;0.60;;
68653;SDS011;55636;51.108;13.622;2023-12-20T04:59:37;0.90;;;0.90;;
68653;SDS011;55636;51.108;13.622;2023-12-20T05:00:39;0.80;;;0.80;;
68653;SDS011;55636;51.108;13.622;2023-12-20T05:01:42;0.90;;;0.90;;
68653;SDS011;55636;51.108;13.622;2023-12-20T05:02:45;0.90;;;0.90;;
68653;SDS011;55636;51.108;13.622;2023-12-20T05:03:48;0.90;;;0.90;;
68653;SDS011;55636;51.108;13.622;2023-12-20T05:04:50;0.70;;;0.70;;
68653;SDS011;55636;51.108;13.622;2023-12-20T05:05:56;0.60;;;0.60;;
68653;SDS011;55636;51.108;13.622;2023-12-20T05:06:59;0.80;;;0.80;;
68653;SDS011;55636;51.108;13.622;2023-12-20T05:08:01;0.70;;;0.70;;
68653;SDS011;55636;51.108;13.622;2023-12-20T05:09:04;0.70;;;0.70;;
68653;SDS011;55636;51.108;13.622;2023-12-20T05:10:06;0.80;;;0.80;;
68653;SDS011;55636;51.108;13.622;2023-12-20T05:11:12;0.80;;;0.80;;
68653;SDS011;55636;51.108;13.622;2023-12-20T05:12:16;0.70;;;0.70;;
68653;SDS011;55636;51.108;13.622;2023-12-20T05:13:19;0.70;;;0.70;;
68653;SDS011;55636;51.108;13.622;2023-12-20T05:14:21;0.97;;;0.80;;
68653;SDS011;55636;51.108;13.622;2023-12-20T05:15:23;0.80;;;0.80;;
68653;SDS011;55636;51.108;13.622;2023-12-20T05:16:26;1.00;;;0.90;;
68653;SDS011;55636;51.108;13.622;2023-12-20T05:17:28;0.90;;;0.90;;
68653;SDS011;55636;51.108;13.622;2023-12-20T05:18:31;1.10;;;1.00;;
68653;SDS011;55636;51.108;13.622;2023-12-20T05:19:33;1.53;;;1.10;;
68653;SDS011;55636;51.108;13.622;2023-12-20T05:20:37;1.70;;;1.40;;
68653;SDS011;55636;51.108;13.622;2023-12-20T05:21:40;1.83;;;1.50;;
68653;SDS011;55636;51.108;13.622;2023-12-20T05:22:43;1.50;;;1.40;;
68653;SDS011;55636;51.108;13.622;2023-12-20T05:23:47;1.40;;;1.30;;
68653;SDS011;55636;51.108;13.622;2023-12-20T05:24:49;1.70;;;1.50;;
68653;SDS011;55636;51.108;13.622;2023-12-20T05:25:51;1.63;;;1.40;;
68653;SDS011;55636;51.108;13.622;2023-12-20T05:26:54;1.07;;;1.07;;
68653;SDS011;55636;51.108;13.622;2023-12-20T05:27:56;0.80;;;0.80;;
68653;SDS011;55636;51.108;13.622;2023-12-20T05:29:00;0.77;;;0.77;;
68653;SDS011;55636;51.108;13.622;2023-12-20T05:30:02;0.50;;;0.50;;
68653;SDS011;55636;51.108;13.622;2023-12-20T05:31:06;0.50;;;0.50;;
68653;SDS011;55636;51.108;13.622;2023-12-20T05:32:09;0.60;;;0.60;;
68653;SDS011;55636;51.108;13.622;2023-12-20T05:33:12;0.60;;;0.60;;
68653;SDS011;55636;51.108;13.622;2023-12-20T05:34:14;0.53;;;0.53;;
68653;SDS011;55636;51.108;13.622;2023-12-20T05:35:17;0.70;;;0.70;;
68653;SDS011;55636;51.108;13.622;2023-12-20T05:36:20;0.50;;;0.50;;
68653;SDS011;55636;51.108;13.622;2023-12-20T05:37:22;0.60;;;0.60;;
68653;SDS011;55636;51.108;13.622;2023-12-20T05:38:25;0.93;;;0.60;;
68653;SDS011;55636;51.108;13.622;2023-12-20T05:39:27;0.60;;;0.60;;
68653;SDS011;55636;51.108;13.622;2023-12-20T05:40:29;0.50;;;0.50;;
68653;SDS011;55636;51.108;13.622;2023-12-20T05:41:32;0.40;;;0.40;;
68653;SDS011;55636;51.108;13.622;2023-12-20T05:42:34;0.50;;;0.50;;
68653;SDS011;55636;51.108;13.622;2023-12-20T05:43:37;0.40;;;0.40;;
68653;SDS011;55636;51.108;13.622;2023-12-20T05:44:39;0.60;;;0.60;;
68653;SDS011;55636;51.108;13.622;2023-12-20T05:45:42;0.50;;;0.50;;
68653;SDS011;55636;51.108;13.622;2023-12-20T05:46:44;0.70;;;0.50;;
68653;SDS011;55636;51.108;13.622;2023-12-20T05:47:48;0.90;;;0.70;;
68653;SDS011;55636;51.108;13.622;2023-12-20T05:48:50;0.60;;;0.60;;
68653;SDS011;55636;51.108;13.622;2023-12-20T05:49:53;0.67;;;0.67;;
68653;SDS011;55636;51.108;13.622;2023-12-20T05:50:56;0.60;;;0.60;;
68653;SDS011;55636;51.108;13.622;2023-12-20T05:51:59;0.80;;;0.80;;
68653;SDS011;55636;51.108;13.622;2023-12-20T05:53:02;0.80;;;0.80;;
68653;SDS011;55636;51.108;13.622;2023-12-20T05:54:04;1.10;;;0.80;;
68653;SDS011;55636;51.108;13.622;2023-12-20T05:55:07;0.70;;;0.70;;
68653;SDS011;55636;51.108;13.622;2023-12-20T05:56:10;0.67;;;0.67;;
68653;SDS011;55636;51.108;13.622;2023-12-20T05:57:12;0.97;;;0.60;;
68653;SDS011;55636;51.108;13.622;2023-12-20T05:58:15;0.57;;;0.57;;
68653;SDS011;55636;51.108;13.622;2023-12-20T05:59:18;0.80;;;0.67;;
68653;SDS011;55636;51.108;13.622;2023-12-20T06:00:20;0.60;;;0.60;;
68653;SDS011;55636;51.108;13.622;2023-12-20T06:01:23;0.63;;;0.63;;
68653;SDS011;55636;51.108;13.622;2023-12-20T06:02:25;0.50;;;0.50;;
68653;SDS011;55636;51.108;13.622;2023-12-20T06:03:28;0.50;;;0.50;;
68653;SDS011;55636;51.108;13.622;2023-12-20T06:04:30;0.63;;;0.63;;
68653;SDS011;55636;51.108;13.622;2023-12-20T06:05:34;0.60;;;0.60;;
68653;SDS011;55636;51.108;13.622;2023-12-20T06:06:43;0.60;;;0.60;;
68653;SDS011;55636;51.108;13.622;2023-12-20T06:07:46;0.50;;;0.50;;
68653;SDS011;55636;51.108;13.622;2023-12-20T06:08:50;0.67;;;0.67;;
68653;SDS011;55636;51.108;13.622;2023-12-20T06:09:54;0.60;;;0.60;;
68653;SDS011;55636;51.108;13.622;2023-12-20T06:10:57;0.70;;;0.70;;
68653;SDS011;55636;51.108;13.622;2023-12-20T06:11:59;0.57;;;0.57;;
68653;SDS011;55636;51.108;13.622;2023-12-20T06:13:01;0.60;;;0.60;;